createdAt,value
2018-09-02T00:00:21.973Z,15.60
2018-09-02T00:05:14.909Z,15.60
2018-09-02T00:10:05.786Z,15.50
2018-09-02T00:14:56.683Z,15.60
2018-09-02T00:19:49.574Z,15.50
2018-09-02T00:24:40.473Z,15.40
2018-09-02T00:29:31.373Z,15.40
2018-09-02T00:34:22.288Z,15.40
2018-09-02T00:39:13.175Z,15.40
2018-09-02T00:44:04.114Z,15.40
2018-09-02T00:48:55.772Z,15.40
2018-09-02T00:53:46.730Z,15.40
2018-09-02T00:58:37.683Z,15.40
2018-09-02T01:03:28.624Z,15.40
2018-09-02T01:08:20.282Z,15.40
2018-09-02T01:13:11.214Z,15.40
2018-09-02T01:18:02.112Z,15.40
2018-09-02T01:22:53.029Z,15.40
2018-09-02T01:27:44.664Z,15.30
2018-09-02T01:32:35.663Z,15.30
2018-09-02T01:37:26.553Z,15.30
2018-09-02T01:42:17.461Z,15.30
2018-09-02T01:47:08.354Z,15.30
2018-09-02T01:52:00.097Z,15.20
2018-09-02T01:56:51.009Z,15.20
2018-09-02T02:01:41.921Z,15.10
2018-09-02T02:06:32.807Z,15.10
2018-09-02T02:11:23.698Z,15.00
2018-09-02T02:16:14.622Z,15.00
2018-09-02T02:21:05.536Z,15.00
2018-09-02T02:25:56.449Z,14.90
2018-09-02T02:30:47.473Z,14.90
2018-09-02T02:35:38.372Z,14.80
2018-09-02T02:40:29.340Z,14.80
2018-09-02T02:45:20.235Z,14.70
2018-09-02T02:50:11.169Z,14.70
2018-09-02T02:55:02.066Z,14.70
2018-09-02T02:59:52.978Z,14.60
2018-09-02T03:04:44.680Z,14.60
2018-09-02T03:09:35.573Z,14.60
2018-09-02T03:14:27.215Z,14.60
2018-09-02T03:19:18.165Z,14.50
2018-09-02T03:24:09.055Z,14.50
2018-09-02T03:29:00.007Z,14.50
2018-09-02T03:33:50.916Z,14.50
2018-09-02T03:38:41.818Z,14.50
2018-09-02T03:43:32.832Z,14.50
2018-09-02T03:48:23.741Z,14.50
2018-09-02T03:53:14.643Z,14.50
2018-09-02T03:58:05.557Z,14.50
2018-09-02T04:02:57.225Z,14.50
2018-09-02T04:07:48.117Z,14.50
2018-09-02T04:12:39.773Z,14.40
2018-09-02T04:17:30.693Z,14.40
2018-09-02T04:22:21.592Z,14.40
2018-09-02T04:27:12.485Z,14.40
2018-09-02T04:32:03.399Z,14.40
2018-09-02T04:36:54.292Z,14.40
2018-09-02T04:41:45.990Z,14.40
2018-09-02T04:46:37.634Z,14.30
2018-09-02T04:51:28.549Z,14.30
2018-09-02T04:56:20.191Z,14.30
2018-09-02T05:01:11.088Z,14.30
2018-09-02T05:06:01.977Z,14.30
2018-09-02T05:10:52.934Z,14.30
2018-09-02T05:15:44.599Z,14.30
2018-09-02T05:20:35.508Z,14.20
2018-09-02T05:25:26.407Z,14.30
2018-09-02T05:30:18.132Z,14.20
2018-09-02T05:35:09.012Z,14.20
2018-09-02T05:39:59.914Z,14.20
2018-09-02T05:44:50.829Z,14.20
2018-09-02T05:49:42.478Z,14.20
2018-09-02T05:54:33.390Z,14.20
2018-09-02T05:59:25.097Z,14.20
2018-09-02T06:04:16.004Z,14.20
2018-09-02T06:09:06.911Z,14.30
2018-09-02T06:13:58.548Z,14.30
2018-09-02T06:18:49.469Z,14.30
2018-09-02T06:23:41.134Z,14.50
2018-09-02T06:28:32.044Z,14.40
2018-09-02T06:33:22.986Z,14.50
2018-09-02T06:38:15.776Z,14.60
2018-09-02T06:43:06.680Z,14.60
2018-09-02T06:47:57.679Z,14.70
2018-09-02T06:52:49.342Z,14.80
2018-09-02T06:57:40.227Z,14.80
2018-09-02T07:02:31.119Z,14.90
2018-09-02T07:07:22.166Z,15.00
2018-09-02T07:12:13.011Z,15.10
2018-09-02T07:17:03.942Z,15.20
2018-09-02T07:21:55.580Z,15.40
2018-09-02T07:26:46.538Z,15.30
2018-09-02T07:31:39.126Z,15.50
2018-09-02T07:36:30.763Z,15.80
2018-09-02T07:41:21.672Z,15.70
2018-09-02T07:46:14.890Z,15.90
2018-09-02T07:51:05.859Z,16.10
2018-09-02T07:55:56.793Z,16.20
2018-09-02T08:00:49.936Z,16.40
2018-09-02T08:05:40.830Z,16.40
2018-09-02T08:10:33.175Z,16.60
2018-09-02T08:15:24.412Z,16.70
2018-09-02T08:20:15.414Z,16.80
2018-09-02T08:25:06.383Z,16.90
2018-09-02T08:29:57.315Z,17.00
2018-09-02T08:34:50.477Z,17.10
2018-09-02T08:39:42.113Z,17.40
2018-09-02T08:44:35.347Z,17.50
2018-09-02T08:49:26.254Z,17.50
2018-09-02T08:54:17.237Z,17.50
2018-09-02T08:59:08.667Z,17.60
2018-09-02T09:03:59.559Z,17.60
2018-09-02T09:08:51.166Z,17.70
2018-09-02T09:13:42.265Z,17.70
2018-09-02T09:18:33.479Z,17.80
2018-09-02T09:23:25.131Z,17.80
2018-09-02T09:28:17.476Z,17.80
2018-09-02T09:33:08.623Z,17.80
2018-09-02T09:37:59.564Z,17.80
2018-09-02T09:42:51.559Z,17.80
2018-09-02T09:47:43.204Z,17.90
2018-09-02T09:52:34.110Z,17.90
2018-09-02T09:57:25.015Z,17.90
2018-09-02T10:02:16.395Z,17.90
2018-09-02T10:07:07.325Z,17.90
2018-09-02T10:11:58.259Z,18.00
2018-09-02T10:16:49.174Z,18.00
2018-09-02T10:21:40.927Z,18.00
2018-09-02T10:26:31.821Z,18.00
2018-09-02T10:31:22.733Z,18.00
2018-09-02T10:36:14.510Z,18.00
2018-09-02T10:41:06.185Z,18.00
2018-09-02T10:45:57.080Z,18.00
2018-09-02T10:50:47.982Z,18.00
2018-09-02T10:55:38.926Z,18.00
2018-09-02T11:00:29.809Z,18.00
2018-09-02T11:05:22.687Z,18.00
2018-09-02T11:10:14.366Z,18.00
2018-09-02T11:15:06.028Z,18.00
2018-09-02T11:19:57.001Z,18.00
2018-09-02T11:24:47.990Z,18.00
2018-09-02T11:29:38.946Z,18.10
2018-09-02T11:34:29.828Z,18.10
2018-09-02T11:39:21.473Z,18.30
2018-09-02T11:44:12.839Z,18.20
2018-09-02T11:49:03.828Z,18.40
2018-09-02T11:53:54.919Z,18.40
2018-09-02T11:58:47.559Z,18.50
2018-09-02T12:03:39.266Z,18.70
2018-09-02T12:08:30.299Z,18.60
2018-09-02T12:13:21.581Z,18.80
2018-09-02T12:18:12.841Z,18.90
2018-09-02T12:23:03.827Z,19.10
2018-09-02T12:27:54.863Z,19.20
2018-09-02T12:32:47.099Z,19.40
2018-09-02T12:37:38.422Z,19.40
2018-09-02T12:42:29.460Z,19.50
2018-09-02T12:47:21.723Z,19.70
2018-09-02T12:52:13.077Z,19.60
2018-09-02T12:57:04.079Z,19.70
2018-09-02T13:01:55.595Z,19.80
2018-09-02T13:06:47.050Z,19.90
2018-09-02T13:11:39.098Z,20.20
2018-09-02T13:16:30.053Z,20.10
2018-09-02T13:21:24.512Z,20.30
2018-09-02T13:26:15.809Z,20.40
2018-09-02T13:31:06.806Z,20.50
2018-09-02T13:35:58.849Z,20.60
2018-09-02T13:40:51.246Z,20.70
2018-09-02T13:45:43.490Z,20.70
2018-09-02T13:50:34.449Z,20.80
2018-09-02T13:55:26.743Z,20.90
2018-09-02T14:00:17.758Z,21.00
2018-09-02T14:05:08.725Z,21.00
2018-09-02T14:09:59.663Z,21.10
2018-09-02T14:14:51.606Z,21.20
2018-09-02T14:19:42.636Z,21.20
2018-09-02T14:24:33.540Z,21.30
2018-09-02T14:29:24.494Z,21.40
2018-09-02T14:34:16.721Z,21.50
2018-09-02T14:39:07.709Z,21.50
2018-09-02T14:43:59.096Z,21.60
2018-09-02T14:48:50.005Z,21.60
2018-09-02T14:53:40.899Z,21.60
2018-09-02T14:58:31.838Z,21.70
2018-09-02T15:03:24.107Z,21.70
2018-09-02T15:08:15.365Z,21.70
2018-09-02T15:13:07.013Z,21.90
2018-09-02T15:17:59.334Z,21.80
2018-09-02T15:22:50.433Z,21.90
2018-09-02T15:27:42.140Z,22.00
2018-09-02T15:32:33.080Z,22.00
2018-09-02T15:37:24.606Z,22.10
2018-09-02T15:42:15.756Z,22.10
2018-09-02T15:47:07.412Z,22.20
2018-09-02T15:51:59.636Z,22.20
2018-09-02T15:56:50.642Z,22.30
2018-09-02T16:01:41.580Z,22.30
2018-09-02T16:06:32.896Z,22.30
2018-09-02T16:11:24.467Z,22.30
2018-09-02T16:16:16.007Z,22.30
2018-09-02T16:21:06.988Z,22.30
2018-09-02T16:25:58.206Z,22.30
2018-09-02T16:30:49.185Z,22.30
2018-09-02T16:35:40.093Z,22.30
2018-09-02T16:40:31.012Z,22.30
2018-09-02T16:45:22.151Z,22.30
2018-09-02T16:50:13.071Z,22.30
2018-09-02T16:55:03.955Z,22.30
2018-09-02T16:59:54.848Z,22.30
2018-09-02T17:04:46.652Z,22.20
2018-09-02T17:09:38.371Z,22.20
2018-09-02T17:14:29.284Z,22.20
2018-09-02T17:19:20.935Z,22.10
2018-09-02T17:24:11.849Z,22.10
2018-09-02T17:29:03.497Z,22.00
2018-09-02T17:33:54.461Z,22.00
2018-09-02T17:38:45.376Z,22.00
2018-09-02T17:43:36.280Z,21.90
2018-09-02T17:48:30.065Z,21.90
2018-09-02T17:53:20.964Z,21.80
2018-09-02T17:58:11.902Z,21.80
2018-09-02T18:03:02.814Z,21.70
2018-09-02T18:07:53.708Z,21.60
2018-09-02T18:12:44.643Z,21.70
2018-09-02T18:17:36.275Z,21.60
2018-09-02T18:22:27.208Z,21.60
2018-09-02T18:27:18.852Z,21.50
2018-09-02T18:32:09.771Z,21.50
2018-09-02T18:37:00.813Z,21.60
2018-09-02T18:41:51.684Z,21.50
2018-09-02T18:46:42.587Z,21.50
2018-09-02T18:51:33.505Z,21.50
2018-09-02T18:56:24.404Z,21.40
2018-09-02T19:01:15.305Z,21.40
2018-09-02T19:06:06.195Z,21.40
2018-09-02T19:10:57.120Z,21.40
2018-09-02T19:15:48.007Z,21.40
2018-09-02T19:20:38.913Z,21.40
2018-09-02T19:25:30.104Z,21.40
2018-09-02T19:30:22.521Z,21.30
2018-09-02T19:35:13.502Z,21.30
2018-09-02T19:40:04.383Z,21.30
2018-09-02T19:44:55.329Z,21.30
2018-09-02T19:49:46.964Z,21.20
2018-09-02T19:54:37.871Z,21.20
2018-09-02T19:59:28.828Z,21.20
2018-09-02T20:04:19.733Z,21.10
2018-09-02T20:09:10.633Z,21.00
2018-09-02T20:14:02.515Z,21.00
2018-09-02T20:18:54.186Z,20.90
2018-09-02T20:23:45.102Z,20.90
2018-09-02T20:28:36.782Z,20.80
2018-09-02T20:33:28.423Z,20.70
2018-09-02T20:38:19.367Z,20.70
2018-09-02T20:43:11.068Z,20.60
2018-09-02T20:48:01.990Z,20.60
2018-09-02T20:52:53.044Z,20.60
2018-09-02T20:57:44.691Z,20.50
2018-09-02T21:02:35.682Z,20.40
2018-09-02T21:07:26.540Z,20.40
2018-09-02T21:12:17.500Z,20.30
2018-09-02T21:17:08.432Z,20.30
2018-09-02T21:21:59.328Z,20.10
2018-09-02T21:26:50.980Z,20.10
2018-09-02T21:31:41.891Z,20.10
2018-09-02T21:36:32.793Z,20.10
2018-09-02T21:41:23.773Z,20.00
2018-09-02T21:46:14.695Z,19.90
2018-09-02T21:51:05.613Z,19.90
2018-09-02T21:55:56.546Z,19.90
2018-09-02T22:00:47.515Z,19.80
2018-09-02T22:05:38.432Z,19.80
2018-09-02T22:10:29.332Z,19.70
2018-09-02T22:15:20.266Z,19.60
2018-09-02T22:20:11.172Z,19.60
2018-09-02T22:25:02.846Z,19.50
2018-09-02T22:29:53.758Z,19.50
2018-09-02T22:34:44.691Z,19.50
2018-09-02T22:39:36.311Z,19.40
2018-09-02T22:44:27.302Z,19.30
2018-09-02T22:49:18.205Z,19.40
2018-09-02T22:54:09.102Z,19.20
2018-09-02T22:59:00.752Z,19.20
2018-09-02T23:03:51.691Z,19.10
2018-09-02T23:08:42.592Z,19.20
2018-09-02T23:13:33.478Z,19.10
2018-09-02T23:18:24.373Z,19.10
2018-09-02T23:23:16.009Z,19.10
2018-09-02T23:28:06.911Z,19.00
2018-09-02T23:32:58.553Z,19.00
2018-09-02T23:37:49.452Z,19.00
2018-09-02T23:42:40.348Z,19.00
2018-09-02T23:47:31.498Z,19.00
2018-09-02T23:52:23.140Z,19.00
2018-09-02T23:57:14.082Z,19.00
